createdAt,value
2022-12-13T08:38:28.971Z,97255.00
2022-12-13T08:40:59.652Z,97255.00
2022-12-13T08:43:27.051Z,97268.00
2022-12-13T08:45:54.415Z,97269.00
2022-12-13T08:51:38.595Z,97278.00
2022-12-13T08:54:10.518Z,97279.00
2022-12-13T08:56:39.139Z,97278.00
2022-12-13T08:59:11.095Z,97276.00
2022-12-13T09:01:38.621Z,97284.00
2022-12-13T09:04:06.091Z,97263.00
2022-12-13T09:06:33.536Z,97276.00
2022-12-13T09:09:03.490Z,97260.00
2022-12-13T09:11:34.552Z,97267.00
2022-12-13T09:14:04.876Z,97260.00
2022-12-13T09:16:36.016Z,97266.00
2022-12-13T09:19:24.678Z,97265.00
2022-12-13T09:21:52.297Z,97259.00
2022-12-13T09:24:29.444Z,97258.00
2022-12-13T09:27:09.291Z,97262.00
2022-12-13T09:29:38.689Z,97267.00
2022-12-13T09:32:06.344Z,97266.00
2022-12-13T09:34:33.835Z,97270.00
2022-12-13T09:37:02.074Z,97258.00
2022-12-13T09:39:30.087Z,97258.00
2022-12-13T09:42:01.296Z,97253.00
2022-12-13T09:45:02.203Z,97261.00
2022-12-13T09:47:46.829Z,97257.00
2022-12-13T09:50:38.503Z,97248.00
2022-12-13T09:53:11.867Z,97256.00
2022-12-13T09:55:52.486Z,97257.00
2022-12-13T09:58:32.003Z,97252.00
2022-12-13T10:00:59.594Z,97248.00
2022-12-13T10:03:27.689Z,97249.00
2022-12-13T10:06:41.631Z,97246.00
2022-12-13T10:09:14.988Z,97246.00
2022-12-13T10:11:54.438Z,97249.00
2022-12-13T10:14:42.977Z,97243.00
2022-12-13T10:17:19.545Z,97240.00
2022-12-13T10:19:52.378Z,97249.00
2022-12-13T10:22:23.086Z,97255.00
2022-12-13T10:25:03.937Z,97258.00
2022-12-13T10:27:45.097Z,97246.00
2022-12-13T10:30:28.820Z,97242.00
2022-12-13T10:33:06.201Z,97259.00
2022-12-13T10:35:40.903Z,97245.00
2022-12-13T10:38:14.215Z,97249.00
2022-12-13T10:40:45.673Z,97246.00
2022-12-13T10:43:27.740Z,97239.00
2022-12-13T10:45:58.629Z,97245.00
2022-12-13T10:48:49.304Z,97237.00
2022-12-13T10:51:22.949Z,97236.00
2022-12-13T10:54:00.726Z,97246.00
2022-12-13T10:56:51.435Z,97217.00
2022-12-13T10:59:20.843Z,97230.00
2022-12-13T11:01:48.367Z,97229.00
2022-12-13T11:04:34.919Z,97226.00
2022-12-13T11:07:29.893Z,97228.00
2022-12-13T11:10:15.088Z,97227.00
2022-12-13T11:12:42.886Z,97227.00
2022-12-13T11:15:25.494Z,97210.00
2022-12-13T11:18:06.554Z,97216.00
2022-12-13T11:20:54.072Z,97199.00
2022-12-13T11:23:46.370Z,97196.00
2022-12-13T11:26:24.275Z,97210.00
2022-12-13T11:30:02.698Z,97196.00
2022-12-13T11:32:46.644Z,97194.00
2022-12-13T11:35:58.746Z,97193.00
2022-12-13T11:39:14.745Z,97188.00
2022-12-13T11:42:30.620Z,97196.00
2022-12-13T11:45:22.964Z,97199.00
2022-12-13T11:48:09.828Z,97198.00
2022-12-13T11:50:49.061Z,97201.00
2022-12-13T11:53:26.656Z,97200.00
2022-12-13T11:56:33.487Z,97201.00
2022-12-13T11:59:39.642Z,97207.00
2022-12-13T12:02:40.418Z,97204.00
2022-12-13T12:05:38.314Z,97207.00
2022-12-13T12:08:40.910Z,97208.00
2022-12-13T12:11:43.519Z,97210.00
2022-12-13T12:14:31.095Z,97199.00
2022-12-13T12:17:00.037Z,97199.00
2022-12-13T12:19:46.787Z,97189.00
2022-12-13T12:23:25.154Z,97190.00
2022-12-13T12:26:14.796Z,97182.00
2022-12-13T12:29:14.545Z,97188.00
2022-12-13T12:32:33.312Z,97203.00
2022-12-13T12:35:56.598Z,97198.00
2022-12-13T12:38:55.271Z,97193.00
2022-12-13T12:42:18.173Z,97197.00
2022-12-13T12:45:03.711Z,97191.00
2022-12-13T12:49:05.728Z,97194.00
2022-12-13T12:52:19.041Z,97190.00
2022-12-13T12:55:36.462Z,97191.00
2022-12-13T12:58:54.028Z,97200.00
2022-12-13T13:02:14.450Z,97190.00
2022-12-13T13:04:55.595Z,97183.00
2022-12-13T13:07:40.172Z,97176.00
2022-12-13T13:10:16.278Z,97182.00
2022-12-13T13:12:53.545Z,97177.00
2022-12-13T13:15:40.049Z,97185.00
2022-12-13T13:18:49.603Z,97178.00
2022-12-13T13:21:32.238Z,97189.00
2022-12-13T13:24:08.334Z,97185.00
2022-12-13T13:26:57.260Z,97178.00
2022-12-13T13:29:27.596Z,97179.00
2022-12-13T13:32:28.272Z,97180.00
2022-12-13T13:35:32.486Z,97177.00
2022-12-13T13:38:23.476Z,97177.00
2022-12-13T13:40:51.553Z,97140.00
2022-12-13T13:43:32.856Z,97170.00
2022-12-13T13:46:11.572Z,97159.00
2022-12-13T13:49:11.935Z,97166.00
2022-12-13T13:52:28.470Z,97161.00
2022-12-13T13:55:40.650Z,97162.00
2022-12-13T13:59:37.961Z,97177.00
2022-12-13T14:03:39.648Z,97158.00
2022-12-13T14:06:44.283Z,97161.00
2022-12-13T14:10:00.822Z,97169.00
2022-12-13T14:13:18.083Z,97157.00
2022-12-13T14:16:37.738Z,97156.00
2022-12-13T14:20:04.039Z,97157.00
2022-12-13T14:22:50.559Z,97162.00
2022-12-13T14:26:16.701Z,97153.00
2022-12-13T14:29:00.101Z,97162.00
2022-12-13T14:31:47.834Z,97129.00
2022-12-13T14:34:30.702Z,97152.00
2022-12-13T14:37:03.850Z,97149.00
2022-12-13T14:39:36.469Z,97147.00
2022-12-13T14:42:33.402Z,97151.00
2022-12-13T14:45:29.634Z,97142.00
2022-12-13T14:48:11.910Z,97151.00
2022-12-13T14:50:41.545Z,97153.00
2022-12-13T14:53:41.303Z,97147.00
2022-12-13T14:56:27.680Z,97155.00
2022-12-13T14:59:11.748Z,97153.00
2022-12-13T15:01:41.025Z,97147.00
2022-12-13T15:04:22.021Z,97142.00
2022-12-13T15:07:41.684Z,97135.00
2022-12-13T15:10:14.910Z,97155.00
2022-12-13T15:12:44.702Z,97145.00
2022-12-13T15:15:34.655Z,97146.00
2022-12-13T15:18:18.649Z,97152.00
2022-12-13T15:20:49.022Z,97161.00
2022-12-13T15:23:48.643Z,97171.00
2022-12-13T15:26:27.780Z,97170.00
2022-12-13T15:29:09.528Z,97184.00
2022-12-13T15:31:40.687Z,97183.00
2022-12-13T15:34:29.128Z,97178.00
2022-12-13T15:37:29.033Z,97173.00
2022-12-13T15:40:09.620Z,97172.00
2022-12-13T15:42:44.601Z,97173.00
2022-12-13T15:45:33.132Z,97160.00
2022-12-13T15:48:02.398Z,97174.00
2022-12-13T15:50:47.057Z,97177.00
2022-12-13T15:53:29.285Z,97173.00
2022-12-13T15:55:56.928Z,97176.00
2022-12-13T15:58:36.415Z,97178.00
2022-12-13T16:01:05.688Z,97178.00
2022-12-13T16:03:45.323Z,97171.00
2022-12-13T16:06:22.161Z,97170.00
2022-12-13T16:09:00.684Z,97161.00
2022-12-13T16:11:48.431Z,97164.00
2022-12-13T16:14:30.563Z,97170.00
2022-12-13T16:17:28.315Z,97148.00
2022-12-13T16:20:06.166Z,97151.00
2022-12-13T16:22:36.700Z,97165.00
2022-12-13T16:25:04.792Z,97165.00
2022-12-13T16:27:32.264Z,97140.00
2022-12-13T16:29:59.693Z,97137.00
2022-12-13T16:32:27.191Z,97139.00
2022-12-13T16:34:54.603Z,97134.00
2022-12-13T16:37:27.544Z,97126.00
2022-12-13T16:39:55.246Z,97119.00
2022-12-13T16:42:26.133Z,97122.00
2022-12-13T16:45:40.596Z,97106.00
2022-12-13T16:47:49.147Z,97110.00
2022-12-13T16:50:21.361Z,97094.00
2022-12-13T16:52:49.768Z,97077.00
2022-12-13T16:55:17.513Z,97086.00
2022-12-13T16:57:54.269Z,97083.00
2022-12-13T17:00:21.721Z,97093.00
2022-12-13T17:02:49.118Z,97083.00
2022-12-13T17:05:16.718Z,97086.00
2022-12-13T17:07:44.068Z,97082.00
2022-12-13T17:10:12.408Z,97074.00
2022-12-13T17:12:40.014Z,97062.00
2022-12-13T17:15:32.431Z,97068.00
2022-12-13T17:18:48.121Z,97074.00
2022-12-13T17:21:26.025Z,97063.00
2022-12-13T17:24:14.026Z,97054.00
2022-12-13T17:26:59.862Z,97062.00
2022-12-13T17:29:59.836Z,97063.00
2022-12-13T17:32:46.730Z,97063.00
2022-12-13T17:35:30.534Z,97058.00
2022-12-13T17:38:00.881Z,97082.00
2022-12-13T17:40:28.270Z,97100.00
2022-12-13T17:42:55.663Z,97094.00
2022-12-13T17:45:23.411Z,97095.00
2022-12-13T17:47:50.842Z,97091.00
2022-12-13T17:50:18.375Z,97084.00
2022-12-13T17:52:45.720Z,97087.00
2022-12-13T17:55:18.074Z,97096.00
2022-12-13T17:57:46.980Z,97102.00
2022-12-13T18:00:15.793Z,97093.00
2022-12-13T18:02:43.132Z,97078.00
2022-12-13T18:05:26.151Z,97082.00
2022-12-13T18:07:53.601Z,97093.00
2022-12-13T18:10:26.256Z,97088.00
2022-12-13T18:12:57.172Z,97089.00
2022-12-13T18:15:24.632Z,97091.00
2022-12-13T18:20:40.191Z,97113.00
2022-12-13T18:23:07.899Z,97100.00
2022-12-13T18:25:36.189Z,97099.00
2022-12-13T18:28:03.747Z,97087.00
2022-12-13T18:30:32.404Z,97083.00
2022-12-13T18:32:59.934Z,97080.00
2022-12-13T18:35:27.595Z,97079.00
2022-12-13T18:37:54.966Z,97077.00
2022-12-13T18:40:23.446Z,97082.00
